sensor_id;sensor_type;location;lat;lon;timestamp;temperature;humidity
74901;DHT22;63461;51.416;6.758;2023-03-01T00:02:01;2.30;99.90
74901;DHT22;63461;51.416;6.758;2023-03-01T00:04:27;2.30;99.90
74901;DHT22;63461;51.416;6.758;2023-03-01T00:06:53;2.20;99.90
74901;DHT22;63461;51.416;6.758;2023-03-01T00:09:19;2.20;99.90
74901;DHT22;63461;51.416;6.758;2023-03-01T00:11:45;2.20;99.90
74901;DHT22;63461;51.416;6.758;2023-03-01T00:14:11;2.20;99.90
74901;DHT22;63461;51.416;6.758;2023-03-01T00:16:42;2.20;99.90
74901;DHT22;63461;51.416;6.758;2023-03-01T00:19:17;2.20;99.90
74901;DHT22;63461;51.416;6.758;2023-03-01T00:21:43;2.10;99.90
74901;DHT22;63461;51.416;6.758;2023-03-01T00:24:10;2.10;99.90
74901;DHT22;63461;51.416;6.758;2023-03-01T00:26:36;2.10;99.90
74901;DHT22;63461;51.416;6.758;2023-03-01T00:29:02;2.10;99.90
74901;DHT22;63461;51.416;6.758;2023-03-01T00:31:30;2.00;99.90
74901;DHT22;63461;51.416;6.758;2023-03-01T00:34:02;2.00;99.90
74901;DHT22;63461;51.416;6.758;2023-03-01T00:36:30;2.00;99.90
74901;DHT22;63461;51.416;6.758;2023-03-01T00:38:56;2.00;99.90
74901;DHT22;63461;51.416;6.758;2023-03-01T00:41:23;2.10;99.90
74901;DHT22;63461;51.416;6.758;2023-03-01T00:43:52;2.00;99.90
74901;DHT22;63461;51.416;6.758;2023-03-01T00:46:21;2.00;99.90
74901;DHT22;63461;51.416;6.758;2023-03-01T00:48:48;2.00;99.90
74901;DHT22;63461;51.416;6.758;2023-03-01T00:51:18;1.90;99.90
74901;DHT22;63461;51.416;6.758;2023-03-01T00:53:44;2.00;99.90
74901;DHT22;63461;51.416;6.758;2023-03-01T00:56:12;1.90;99.90
74901;DHT22;63461;51.416;6.758;2023-03-01T00:58:39;2.00;99.90
74901;DHT22;63461;51.416;6.758;2023-03-01T01:01:16;2.00;99.90
74901;DHT22;63461;51.416;6.758;2023-03-01T01:03:47;1.90;99.90
74901;DHT22;63461;51.416;6.758;2023-03-01T01:06:18;1.90;99.90
74901;DHT22;63461;51.416;6.758;2023-03-01T01:08:44;1.90;99.90
74901;DHT22;63461;51.416;6.758;2023-03-01T01:11:11;1.90;99.90
74901;DHT22;63461;51.416;6.758;2023-03-01T01:13:38;1.90;99.90
74901;DHT22;63461;51.416;6.758;2023-03-01T01:16:05;1.90;99.90
74901;DHT22;63461;51.416;6.758;2023-03-01T01:18:31;1.90;99.90
74901;DHT22;63461;51.416;6.758;2023-03-01T01:20:57;1.90;99.90
74901;DHT22;63461;51.416;6.758;2023-03-01T01:23:23;1.80;99.90
74901;DHT22;63461;51.416;6.758;2023-03-01T01:25:49;1.80;99.90
74901;DHT22;63461;51.416;6.758;2023-03-01T01:28:14;1.80;99.90
74901;DHT22;63461;51.416;6.758;2023-03-01T01:30:40;1.80;99.90
74901;DHT22;63461;51.416;6.758;2023-03-01T01:33:06;1.80;99.90
74901;DHT22;63461;51.416;6.758;2023-03-01T01:35:31;1.70;99.90
74901;DHT22;63461;51.416;6.758;2023-03-01T01:37:57;1.70;99.90
74901;DHT22;63461;51.416;6.758;2023-03-01T01:40:23;1.70;99.90
74901;DHT22;63461;51.416;6.758;2023-03-01T01:42:49;1.70;99.90
74901;DHT22;63461;51.416;6.758;2023-03-01T01:45:34;1.70;99.90
74901;DHT22;63461;51.416;6.758;2023-03-01T01:48:05;1.70;99.90
74901;DHT22;63461;51.416;6.758;2023-03-01T01:50:33;1.70;99.90
74901;DHT22;63461;51.416;6.758;2023-03-01T01:53:10;1.60;99.90
74901;DHT22;63461;51.416;6.758;2023-03-01T01:55:42;1.70;99.90
74901;DHT22;63461;51.416;6.758;2023-03-01T01:58:12;1.60;99.90
74901;DHT22;63461;51.416;6.758;2023-03-01T02:00:39;1.60;99.90
74901;DHT22;63461;51.416;6.758;2023-03-01T02:03:12;1.60;99.90
74901;DHT22;63461;51.416;6.758;2023-03-01T02:08:04;1.60;99.90
74901;DHT22;63461;51.416;6.758;2023-03-01T02:10:32;1.50;99.90
74901;DHT22;63461;51.416;6.758;2023-03-01T02:12:58;1.50;99.90
74901;DHT22;63461;51.416;6.758;2023-03-01T02:15:26;1.50;99.90
74901;DHT22;63461;51.416;6.758;2023-03-01T02:17:53;1.50;99.90
74901;DHT22;63461;51.416;6.758;2023-03-01T02:20:30;1.50;99.90
74901;DHT22;63461;51.416;6.758;2023-03-01T02:22:57;1.50;99.90
74901;DHT22;63461;51.416;6.758;2023-03-01T02:25:43;1.50;99.90
74901;DHT22;63461;51.416;6.758;2023-03-01T02:30:48;1.40;99.90
74901;DHT22;63461;51.416;6.758;2023-03-01T02:33:36;1.50;99.90
74901;DHT22;63461;51.416;6.758;2023-03-01T02:36:06;1.50;99.90
74901;DHT22;63461;51.416;6.758;2023-03-01T02:38:33;1.40;99.90
74901;DHT22;63461;51.416;6.758;2023-03-01T02:41:00;1.40;99.90
74901;DHT22;63461;51.416;6.758;2023-03-01T02:43:30;1.40;99.90
74901;DHT22;63461;51.416;6.758;2023-03-01T02:46:07;1.40;99.90
74901;DHT22;63461;51.416;6.758;2023-03-01T02:49:00;1.40;99.90
74901;DHT22;63461;51.416;6.758;2023-03-01T02:51:48;1.40;99.90
74901;DHT22;63461;51.416;6.758;2023-03-01T02:54:40;1.30;99.90
74901;DHT22;63461;51.416;6.758;2023-03-01T02:57:09;1.30;99.90
74901;DHT22;63461;51.416;6.758;2023-03-01T02:59:36;1.30;99.90
74901;DHT22;63461;51.416;6.758;2023-03-01T03:02:07;1.30;99.90
74901;DHT22;63461;51.416;6.758;2023-03-01T03:04:33;1.20;99.90
74901;DHT22;63461;51.416;6.758;2023-03-01T03:06:59;1.20;99.90
74901;DHT22;63461;51.416;6.758;2023-03-01T03:09:25;1.20;99.90
74901;DHT22;63461;51.416;6.758;2023-03-01T03:11:51;1.30;99.90
74901;DHT22;63461;51.416;6.758;2023-03-01T03:14:17;1.30;99.90
74901;DHT22;63461;51.416;6.758;2023-03-01T03:16:48;1.20;99.90
74901;DHT22;63461;51.416;6.758;2023-03-01T03:19:18;1.20;99.90
74901;DHT22;63461;51.416;6.758;2023-03-01T03:21:45;1.20;99.90
74901;DHT22;63461;51.416;6.758;2023-03-01T03:24:11;1.20;99.90
74901;DHT22;63461;51.416;6.758;2023-03-01T03:26:37;1.20;99.90
74901;DHT22;63461;51.416;6.758;2023-03-01T03:29:02;1.20;99.90
74901;DHT22;63461;51.416;6.758;2023-03-01T03:31:28;1.20;99.90
74901;DHT22;63461;51.416;6.758;2023-03-01T03:33:54;1.20;99.90
74901;DHT22;63461;51.416;6.758;2023-03-01T03:36:22;1.20;99.90
74901;DHT22;63461;51.416;6.758;2023-03-01T03:38:48;1.20;99.90
74901;DHT22;63461;51.416;6.758;2023-03-01T03:41:15;1.10;99.90
74901;DHT22;63461;51.416;6.758;2023-03-01T03:43:41;1.10;99.90
74901;DHT22;63461;51.416;6.758;2023-03-01T03:46:09;1.10;99.90
74901;DHT22;63461;51.416;6.758;2023-03-01T03:48:41;1.10;99.90
74901;DHT22;63461;51.416;6.758;2023-03-01T03:51:14;1.10;99.90
74901;DHT22;63461;51.416;6.758;2023-03-01T03:53:40;1.00;99.90
74901;DHT22;63461;51.416;6.758;2023-03-01T03:56:06;1.00;99.90
74901;DHT22;63461;51.416;6.758;2023-03-01T03:58:32;1.00;99.90
74901;DHT22;63461;51.416;6.758;2023-03-01T04:00:59;1.00;99.90
74901;DHT22;63461;51.416;6.758;2023-03-01T04:03:28;1.00;99.90
74901;DHT22;63461;51.416;6.758;2023-03-01T04:05:54;1.10;99.90
74901;DHT22;63461;51.416;6.758;2023-03-01T04:08:23;1.00;99.90
74901;DHT22;63461;51.416;6.758;2023-03-01T04:10:51;1.00;99.90
74901;DHT22;63461;51.416;6.758;2023-03-01T04:13:19;1.00;99.90
74901;DHT22;63461;51.416;6.758;2023-03-01T04:15:47;1.00;99.90
74901;DHT22;63461;51.416;6.758;2023-03-01T04:18:14;1.00;99.90
74901;DHT22;63461;51.416;6.758;2023-03-01T04:20:41;1.00;99.90
74901;DHT22;63461;51.416;6.758;2023-03-01T04:23:10;1.00;99.90
74901;DHT22;63461;51.416;6.758;2023-03-01T04:25:40;1.00;99.90
74901;DHT22;63461;51.416;6.758;2023-03-01T04:28:07;1.00;99.90
74901;DHT22;63461;51.416;6.758;2023-03-01T04:30:33;0.90;99.90
74901;DHT22;63461;51.416;6.758;2023-03-01T04:33:09;1.00;99.90
74901;DHT22;63461;51.416;6.758;2023-03-01T04:35:36;0.90;99.90
74901;DHT22;63461;51.416;6.758;2023-03-01T04:38:03;0.80;99.90
74901;DHT22;63461;51.416;6.758;2023-03-01T04:40:29;0.90;99.90
74901;DHT22;63461;51.416;6.758;2023-03-01T04:42:55;0.90;99.90
74901;DHT22;63461;51.416;6.758;2023-03-01T04:45:21;0.90;99.90
74901;DHT22;63461;51.416;6.758;2023-03-01T04:47:48;0.90;99.90
74901;DHT22;63461;51.416;6.758;2023-03-01T04:50:16;0.80;99.90
74901;DHT22;63461;51.416;6.758;2023-03-01T04:52:43;0.80;99.90
74901;DHT22;63461;51.416;6.758;2023-03-01T04:55:10;0.80;99.90
74901;DHT22;63461;51.416;6.758;2023-03-01T04:57:36;0.70;99.90
74901;DHT22;63461;51.416;6.758;2023-03-01T05:00:02;0.80;99.90
74901;DHT22;63461;51.416;6.758;2023-03-01T05:03:00;0.70;99.90
74901;DHT22;63461;51.416;6.758;2023-03-01T05:05:30;0.70;99.90
74901;DHT22;63461;51.416;6.758;2023-03-01T05:08:01;0.70;99.90
74901;DHT22;63461;51.416;6.758;2023-03-01T05:10:29;0.70;99.90
74901;DHT22;63461;51.416;6.758;2023-03-01T05:12:56;0.70;99.90
74901;DHT22;63461;51.416;6.758;2023-03-01T05:15:23;0.70;99.90
74901;DHT22;63461;51.416;6.758;2023-03-01T05:17:51;0.70;99.90
74901;DHT22;63461;51.416;6.758;2023-03-01T05:20:17;0.70;99.90
74901;DHT22;63461;51.416;6.758;2023-03-01T05:22:43;0.70;99.90
74901;DHT22;63461;51.416;6.758;2023-03-01T05:25:09;0.70;99.90
74901;DHT22;63461;51.416;6.758;2023-03-01T05:27:35;0.70;99.90
74901;DHT22;63461;51.416;6.758;2023-03-01T05:30:02;0.60;99.90
74901;DHT22;63461;51.416;6.758;2023-03-01T05:32:44;0.50;99.90
74901;DHT22;63461;51.416;6.758;2023-03-01T05:35:15;0.60;99.90
74901;DHT22;63461;51.416;6.758;2023-03-01T05:37:42;0.60;99.90
74901;DHT22;63461;51.416;6.758;2023-03-01T05:40:14;0.60;99.90
74901;DHT22;63461;51.416;6.758;2023-03-01T05:42:53;0.50;99.90
74901;DHT22;63461;51.416;6.758;2023-03-01T05:45:20;0.60;99.90
74901;DHT22;63461;51.416;6.758;2023-03-01T05:47:48;0.50;99.90
74901;DHT22;63461;51.416;6.758;2023-03-01T05:50:17;0.50;99.90
74901;DHT22;63461;51.416;6.758;2023-03-01T05:52:51;0.50;99.90
74901;DHT22;63461;51.416;6.758;2023-03-01T05:55:19;0.50;99.90
74901;DHT22;63461;51.416;6.758;2023-03-01T05:57:46;0.50;99.90
74901;DHT22;63461;51.416;6.758;2023-03-01T06:00:14;0.50;99.90
74901;DHT22;63461;51.416;6.758;2023-03-01T06:02:40;0.50;99.90
74901;DHT22;63461;51.416;6.758;2023-03-01T06:05:08;0.50;99.90
74901;DHT22;63461;51.416;6.758;2023-03-01T06:07:35;0.50;99.90
74901;DHT22;63461;51.416;6.758;2023-03-01T06:10:02;0.50;99.90
74901;DHT22;63461;51.416;6.758;2023-03-01T06:12:36;0.50;99.90
74901;DHT22;63461;51.416;6.758;2023-03-01T06:15:03;0.40;99.90
74901;DHT22;63461;51.416;6.758;2023-03-01T06:17:32;0.40;99.90
74901;DHT22;63461;51.416;6.758;2023-03-01T06:19:58;0.40;99.90
74901;DHT22;63461;51.416;6.758;2023-03-01T06:22:24;0.40;99.90
74901;DHT22;63461;51.416;6.758;2023-03-01T06:24:49;0.40;99.90
74901;DHT22;63461;51.416;6.758;2023-03-01T06:27:16;0.40;99.90
74901;DHT22;63461;51.416;6.758;2023-03-01T06:29:41;0.40;99.90
74901;DHT22;63461;51.416;6.758;2023-03-01T06:32:08;0.40;99.90
74901;DHT22;63461;51.416;6.758;2023-03-01T06:34:34;0.40;99.90
74901;DHT22;63461;51.416;6.758;2023-03-01T06:36:59;0.40;99.90
74901;DHT22;63461;51.416;6.758;2023-03-01T06:39:27;0.30;99.90
74901;DHT22;63461;51.416;6.758;2023-03-01T06:41:53;0.40;99.90
74901;DHT22;63461;51.416;6.758;2023-03-01T06:44:19;0.50;99.90
74901;DHT22;63461;51.416;6.758;2023-03-01T06:46:45;0.40;99.90
74901;DHT22;63461;51.416;6.758;2023-03-01T06:49:10;0.40;99.90
74901;DHT22;63461;51.416;6.758;2023-03-01T06:51:37;0.50;99.90
74901;DHT22;63461;51.416;6.758;2023-03-01T06:54:06;0.40;99.90
74901;DHT22;63461;51.416;6.758;2023-03-01T06:56:32;0.50;99.90
74901;DHT22;63461;51.416;6.758;2023-03-01T06:58:58;0.50;99.90
74901;DHT22;63461;51.416;6.758;2023-03-01T07:01:24;0.50;99.90
74901;DHT22;63461;51.416;6.758;2023-03-01T07:03:50;0.50;99.90
74901;DHT22;63461;51.416;6.758;2023-03-01T07:06:15;0.50;99.90
74901;DHT22;63461;51.416;6.758;2023-03-01T07:08:41;0.50;99.90
74901;DHT22;63461;51.416;6.758;2023-03-01T07:11:07;0.60;99.90
74901;DHT22;63461;51.416;6.758;2023-03-01T07:13:33;0.60;99.90
74901;DHT22;63461;51.416;6.758;2023-03-01T07:15:59;0.60;99.90
74901;DHT22;63461;51.416;6.758;2023-03-01T07:18:25;0.70;99.90
74901;DHT22;63461;51.416;6.758;2023-03-01T07:20:50;0.60;99.90
74901;DHT22;63461;51.416;6.758;2023-03-01T07:23:16;0.70;99.90
74901;DHT22;63461;51.416;6.758;2023-03-01T07:25:42;0.70;99.90
74901;DHT22;63461;51.416;6.758;2023-03-01T07:28:08;0.70;99.90
74901;DHT22;63461;51.416;6.758;2023-03-01T07:30:34;0.80;99.90
74901;DHT22;63461;51.416;6.758;2023-03-01T07:32:59;0.80;99.90
74901;DHT22;63461;51.416;6.758;2023-03-01T07:35:26;0.80;99.90
74901;DHT22;63461;51.416;6.758;2023-03-01T07:37:52;0.80;99.90
74901;DHT22;63461;51.416;6.758;2023-03-01T07:40:18;0.80;99.90
74901;DHT22;63461;51.416;6.758;2023-03-01T07:42:44;0.80;99.90
74901;DHT22;63461;51.416;6.758;2023-03-01T07:45:11;0.80;99.90
74901;DHT22;63461;51.416;6.758;2023-03-01T07:47:36;0.90;99.90
74901;DHT22;63461;51.416;6.758;2023-03-01T07:50:03;0.90;99.90
74901;DHT22;63461;51.416;6.758;2023-03-01T07:52:29;0.90;99.90
74901;DHT22;63461;51.416;6.758;2023-03-01T07:54:56;1.00;99.90
74901;DHT22;63461;51.416;6.758;2023-03-01T07:57:23;1.00;99.90
74901;DHT22;63461;51.416;6.758;2023-03-01T07:59:49;1.10;99.90
74901;DHT22;63461;51.416;6.758;2023-03-01T08:02:14;1.10;99.90
74901;DHT22;63461;51.416;6.758;2023-03-01T08:04:41;1.10;99.90
74901;DHT22;63461;51.416;6.758;2023-03-01T08:07:07;1.10;99.90
74901;DHT22;63461;51.416;6.758;2023-03-01T08:09:36;1.10;99.90
74901;DHT22;63461;51.416;6.758;2023-03-01T08:12:03;1.10;99.90
74901;DHT22;63461;51.416;6.758;2023-03-01T08:14:31;1.20;99.90
74901;DHT22;63461;51.416;6.758;2023-03-01T08:16:57;1.20;99.90
74901;DHT22;63461;51.416;6.758;2023-03-01T08:19:23;1.30;99.90
74901;DHT22;63461;51.416;6.758;2023-03-01T08:21:49;1.40;99.90
74901;DHT22;63461;51.416;6.758;2023-03-01T08:24:15;1.40;99.90
74901;DHT22;63461;51.416;6.758;2023-03-01T08:26:40;1.40;99.90
74901;DHT22;63461;51.416;6.758;2023-03-01T08:29:06;1.40;99.90
74901;DHT22;63461;51.416;6.758;2023-03-01T08:31:35;1.40;99.90
74901;DHT22;63461;51.416;6.758;2023-03-01T08:34:10;1.40;99.90
74901;DHT22;63461;51.416;6.758;2023-03-01T08:36:38;1.50;99.90
74901;DHT22;63461;51.416;6.758;2023-03-01T08:39:06;1.50;99.90
74901;DHT22;63461;51.416;6.758;2023-03-01T08:41:32;1.60;99.90
74901;DHT22;63461;51.416;6.758;2023-03-01T08:43:58;1.60;99.90
74901;DHT22;63461;51.416;6.758;2023-03-01T08:46:32;1.70;99.90
74901;DHT22;63461;51.416;6.758;2023-03-01T08:48:59;1.60;99.90
74901;DHT22;63461;51.416;6.758;2023-03-01T08:51:25;1.70;99.90
74901;DHT22;63461;51.416;6.758;2023-03-01T08:53:51;1.80;99.90
74901;DHT22;63461;51.416;6.758;2023-03-01T08:56:17;1.80;99.90
74901;DHT22;63461;51.416;6.758;2023-03-01T08:58:47;1.90;99.90
74901;DHT22;63461;51.416;6.758;2023-03-01T09:01:18;1.90;99.90
74901;DHT22;63461;51.416;6.758;2023-03-01T09:03:44;1.90;99.90
74901;DHT22;63461;51.416;6.758;2023-03-01T09:06:11;2.00;99.90
74901;DHT22;63461;51.416;6.758;2023-03-01T09:08:39;2.10;99.90
74901;DHT22;63461;51.416;6.758;2023-03-01T09:11:07;2.10;99.90
74901;DHT22;63461;51.416;6.758;2023-03-01T09:13:33;2.10;99.90
74901;DHT22;63461;51.416;6.758;2023-03-01T09:16:01;2.20;99.90
74901;DHT22;63461;51.416;6.758;2023-03-01T09:18:28;2.20;99.90
74901;DHT22;63461;51.416;6.758;2023-03-01T09:21:07;2.30;99.90
74901;DHT22;63461;51.416;6.758;2023-03-01T09:23:39;2.30;99.90
74901;DHT22;63461;51.416;6.758;2023-03-01T09:26:06;2.40;99.90
74901;DHT22;63461;51.416;6.758;2023-03-01T09:28:32;2.40;99.90
74901;DHT22;63461;51.416;6.758;2023-03-01T09:30:59;2.40;99.90
74901;DHT22;63461;51.416;6.758;2023-03-01T09:33:26;2.50;99.90
74901;DHT22;63461;51.416;6.758;2023-03-01T09:35:58;2.50;99.90
74901;DHT22;63461;51.416;6.758;2023-03-01T09:38:25;2.50;99.90
74901;DHT22;63461;51.416;6.758;2023-03-01T09:40:51;2.60;99.90
74901;DHT22;63461;51.416;6.758;2023-03-01T09:46:05;2.70;99.90
74901;DHT22;63461;51.416;6.758;2023-03-01T09:48:41;2.70;99.90
74901;DHT22;63461;51.416;6.758;2023-03-01T09:51:14;2.70;99.90
74901;DHT22;63461;51.416;6.758;2023-03-01T09:53:43;2.70;99.90
74901;DHT22;63461;51.416;6.758;2023-03-01T09:56:39;2.80;99.90
74901;DHT22;63461;51.416;6.758;2023-03-01T09:59:26;2.80;99.90
74901;DHT22;63461;51.416;6.758;2023-03-01T10:02:38;2.90;99.90
74901;DHT22;63461;51.416;6.758;2023-03-01T10:05:44;2.90;99.90
74901;DHT22;63461;51.416;6.758;2023-03-01T10:08:38;2.90;99.90
74901;DHT22;63461;51.416;6.758;2023-03-01T10:11:20;3.00;99.90
74901;DHT22;63461;51.416;6.758;2023-03-01T10:13:52;3.00;99.90
74901;DHT22;63461;51.416;6.758;2023-03-01T10:16:28;3.10;99.90
74901;DHT22;63461;51.416;6.758;2023-03-01T10:18:59;3.10;99.90
74901;DHT22;63461;51.416;6.758;2023-03-01T10:21:27;3.20;99.70
74901;DHT22;63461;51.416;6.758;2023-03-01T10:23:53;3.20;99.50
74901;DHT22;63461;51.416;6.758;2023-03-01T10:29:05;3.30;98.20
74901;DHT22;63461;51.416;6.758;2023-03-01T10:34:22;3.30;97.70
74901;DHT22;63461;51.416;6.758;2023-03-01T10:36:50;3.40;97.90
74901;DHT22;63461;51.416;6.758;2023-03-01T10:39:22;3.50;97.70
74901;DHT22;63461;51.416;6.758;2023-03-01T10:42:03;3.50;97.60
74901;DHT22;63461;51.416;6.758;2023-03-01T10:44:41;3.50;97.40
74901;DHT22;63461;51.416;6.758;2023-03-01T10:47:17;3.50;97.40
74901;DHT22;63461;51.416;6.758;2023-03-01T10:49:53;3.60;97.30
74901;DHT22;63461;51.416;6.758;2023-03-01T10:52:21;3.60;97.00
74901;DHT22;63461;51.416;6.758;2023-03-01T10:54:53;3.70;96.50
74901;DHT22;63461;51.416;6.758;2023-03-01T10:57:32;3.70;96.20
74901;DHT22;63461;51.416;6.758;2023-03-01T11:00:20;3.80;96.10
74901;DHT22;63461;51.416;6.758;2023-03-01T11:03:00;3.80;95.50
74901;DHT22;63461;51.416;6.758;2023-03-01T11:05:26;3.80;95.80
74901;DHT22;63461;51.416;6.758;2023-03-01T11:08:01;3.90;94.60
74901;DHT22;63461;51.416;6.758;2023-03-01T11:10:33;3.90;94.10
74901;DHT22;63461;51.416;6.758;2023-03-01T11:13:14;3.90;93.70
74901;DHT22;63461;51.416;6.758;2023-03-01T11:15:41;3.90;93.90
74901;DHT22;63461;51.416;6.758;2023-03-01T11:18:20;4.00;94.10
74901;DHT22;63461;51.416;6.758;2023-03-01T11:20:46;4.00;93.80
74901;DHT22;63461;51.416;6.758;2023-03-01T11:23:14;4.00;93.90
74901;DHT22;63461;51.416;6.758;2023-03-01T11:25:54;4.10;93.90
74901;DHT22;63461;51.416;6.758;2023-03-01T11:28:20;4.10;93.40
74901;DHT22;63461;51.416;6.758;2023-03-01T11:30:53;4.10;93.50
74901;DHT22;63461;51.416;6.758;2023-03-01T11:38:53;4.20;93.00
74901;DHT22;63461;51.416;6.758;2023-03-01T11:41:23;4.30;92.60
74901;DHT22;63461;51.416;6.758;2023-03-01T11:44:03;4.30;92.20
74901;DHT22;63461;51.416;6.758;2023-03-01T11:49:06;4.40;91.70
74901;DHT22;63461;51.416;6.758;2023-03-01T11:51:53;4.30;91.70
74901;DHT22;63461;51.416;6.758;2023-03-01T12:00:15;4.60;91.30
74901;DHT22;63461;51.416;6.758;2023-03-01T12:05:45;4.60;91.10
74901;DHT22;63461;51.416;6.758;2023-03-01T12:11:16;4.70;91.60
74901;DHT22;63461;51.416;6.758;2023-03-01T12:19:24;4.80;90.70
74901;DHT22;63461;51.416;6.758;2023-03-01T12:22:16;4.80;90.10
74901;DHT22;63461;51.416;6.758;2023-03-01T12:41:11;5.10;88.00
74901;DHT22;63461;51.416;6.758;2023-03-01T12:43:47;5.10;88.60
74901;DHT22;63461;51.416;6.758;2023-03-01T12:49:19;5.20;87.90
74901;DHT22;63461;51.416;6.758;2023-03-01T12:52:03;5.20;87.80
74901;DHT22;63461;51.416;6.758;2023-03-01T12:54:36;5.20;88.40
74901;DHT22;63461;51.416;6.758;2023-03-01T12:57:18;5.30;88.50
74901;DHT22;63461;51.416;6.758;2023-03-01T13:02:45;5.30;89.20
74901;DHT22;63461;51.416;6.758;2023-03-01T13:05:34;5.40;89.50
74901;DHT22;63461;51.416;6.758;2023-03-01T13:08:19;5.50;88.30
74901;DHT22;63461;51.416;6.758;2023-03-01T13:10:51;5.40;87.80
74901;DHT22;63461;51.416;6.758;2023-03-01T13:13:25;5.50;87.80
74901;DHT22;63461;51.416;6.758;2023-03-01T13:15:52;5.50;87.60
74901;DHT22;63461;51.416;6.758;2023-03-01T13:20:48;5.60;87.50
74901;DHT22;63461;51.416;6.758;2023-03-01T13:26:02;5.60;87.30
74901;DHT22;63461;51.416;6.758;2023-03-01T13:31:07;5.70;86.30
74901;DHT22;63461;51.416;6.758;2023-03-01T13:33:43;5.80;85.60
74901;DHT22;63461;51.416;6.758;2023-03-01T13:36:10;5.70;86.40
74901;DHT22;63461;51.416;6.758;2023-03-01T13:38:56;5.80;85.00
74901;DHT22;63461;51.416;6.758;2023-03-01T13:44:32;5.70;84.90
74901;DHT22;63461;51.416;6.758;2023-03-01T13:50:00;5.80;84.90
74901;DHT22;63461;51.416;6.758;2023-03-01T13:52:39;5.80;85.40
74901;DHT22;63461;51.416;6.758;2023-03-01T13:55:19;5.90;85.90
74901;DHT22;63461;51.416;6.758;2023-03-01T13:57:49;5.90;85.20
74901;DHT22;63461;51.416;6.758;2023-03-01T14:00:38;6.00;84.60
74901;DHT22;63461;51.416;6.758;2023-03-01T14:03:17;6.00;85.00
74901;DHT22;63461;51.416;6.758;2023-03-01T14:05:58;5.90;85.00
74901;DHT22;63461;51.416;6.758;2023-03-01T14:08:27;5.90;85.60
74901;DHT22;63461;51.416;6.758;2023-03-01T14:21:26;5.90;85.00
74901;DHT22;63461;51.416;6.758;2023-03-01T14:23:52;6.00;84.80
74901;DHT22;63461;51.416;6.758;2023-03-01T14:26:22;6.00;85.00
74901;DHT22;63461;51.416;6.758;2023-03-01T14:28:49;6.00;85.20
74901;DHT22;63461;51.416;6.758;2023-03-01T14:31:38;6.00;85.70
74901;DHT22;63461;51.416;6.758;2023-03-01T14:34:05;6.00;85.60
74901;DHT22;63461;51.416;6.758;2023-03-01T14:36:33;6.00;85.40
74901;DHT22;63461;51.416;6.758;2023-03-01T14:38:59;6.00;85.60
74901;DHT22;63461;51.416;6.758;2023-03-01T14:41:33;5.90;85.60
74901;DHT22;63461;51.416;6.758;2023-03-01T14:44:05;5.90;86.10
74901;DHT22;63461;51.416;6.758;2023-03-01T14:46:33;6.00;85.50
74901;DHT22;63461;51.416;6.758;2023-03-01T14:49:26;6.00;85.40
74901;DHT22;63461;51.416;6.758;2023-03-01T14:51:58;6.00;85.70
74901;DHT22;63461;51.416;6.758;2023-03-01T14:57:01;6.10;85.00
74901;DHT22;63461;51.416;6.758;2023-03-01T14:59:28;6.00;85.90
74901;DHT22;63461;51.416;6.758;2023-03-01T15:01:57;6.00;85.40
74901;DHT22;63461;51.416;6.758;2023-03-01T15:04:24;6.10;85.90
74901;DHT22;63461;51.416;6.758;2023-03-01T15:06:53;6.00;86.20
74901;DHT22;63461;51.416;6.758;2023-03-01T15:09:19;6.10;86.10
74901;DHT22;63461;51.416;6.758;2023-03-01T15:11:46;6.10;85.90
74901;DHT22;63461;51.416;6.758;2023-03-01T15:14:42;6.10;86.50
74901;DHT22;63461;51.416;6.758;2023-03-01T15:19:58;6.20;86.90
74901;DHT22;63461;51.416;6.758;2023-03-01T15:22:26;6.10;86.60
74901;DHT22;63461;51.416;6.758;2023-03-01T15:24:52;6.10;86.80
74901;DHT22;63461;51.416;6.758;2023-03-01T15:27:21;6.10;86.80
74901;DHT22;63461;51.416;6.758;2023-03-01T15:29:58;6.10;86.20
74901;DHT22;63461;51.416;6.758;2023-03-01T15:32:29;6.00;86.80
74901;DHT22;63461;51.416;6.758;2023-03-01T15:34:59;6.00;87.00
74901;DHT22;63461;51.416;6.758;2023-03-01T15:37:45;6.10;87.20
74901;DHT22;63461;51.416;6.758;2023-03-01T15:40:28;6.00;86.60
74901;DHT22;63461;51.416;6.758;2023-03-01T15:42:58;6.00;87.10
74901;DHT22;63461;51.416;6.758;2023-03-01T15:45:26;6.00;87.30
74901;DHT22;63461;51.416;6.758;2023-03-01T15:48:15;6.00;87.30
74901;DHT22;63461;51.416;6.758;2023-03-01T15:50:43;6.00;86.90
74901;DHT22;63461;51.416;6.758;2023-03-01T15:53:12;6.00;87.50
74901;DHT22;63461;51.416;6.758;2023-03-01T15:55:40;6.00;87.60
74901;DHT22;63461;51.416;6.758;2023-03-01T15:58:10;6.00;86.70
74901;DHT22;63461;51.416;6.758;2023-03-01T16:00:37;6.00;86.60
74901;DHT22;63461;51.416;6.758;2023-03-01T16:03:05;5.90;86.60
74901;DHT22;63461;51.416;6.758;2023-03-01T16:05:33;5.90;87.10
74901;DHT22;63461;51.416;6.758;2023-03-01T16:08:02;6.00;86.90
74901;DHT22;63461;51.416;6.758;2023-03-01T16:10:28;5.90;87.50
74901;DHT22;63461;51.416;6.758;2023-03-01T16:12:56;5.90;87.20
74901;DHT22;63461;51.416;6.758;2023-03-01T16:15:25;5.90;86.90
74901;DHT22;63461;51.416;6.758;2023-03-01T16:17:53;5.90;87.30
74901;DHT22;63461;51.416;6.758;2023-03-01T16:20:22;5.90;87.30
74901;DHT22;63461;51.416;6.758;2023-03-01T16:22:48;5.90;87.30
74901;DHT22;63461;51.416;6.758;2023-03-01T16:25:16;5.80;86.90
74901;DHT22;63461;51.416;6.758;2023-03-01T16:27:43;5.80;86.30
74901;DHT22;63461;51.416;6.758;2023-03-01T16:30:10;5.80;86.10
74901;DHT22;63461;51.416;6.758;2023-03-01T16:32:41;5.80;85.60
74901;DHT22;63461;51.416;6.758;2023-03-01T16:35:08;5.80;85.60
74901;DHT22;63461;51.416;6.758;2023-03-01T16:37:35;5.70;85.90
74901;DHT22;63461;51.416;6.758;2023-03-01T16:40:02;5.70;85.80
74901;DHT22;63461;51.416;6.758;2023-03-01T16:42:34;5.70;85.90
74901;DHT22;63461;51.416;6.758;2023-03-01T16:45:05;5.70;86.00
74901;DHT22;63461;51.416;6.758;2023-03-01T16:47:33;5.70;85.90
74901;DHT22;63461;51.416;6.758;2023-03-01T16:49:59;5.60;86.30
74901;DHT22;63461;51.416;6.758;2023-03-01T16:52:25;5.70;86.30
74901;DHT22;63461;51.416;6.758;2023-03-01T16:54:51;5.70;86.20
74901;DHT22;63461;51.416;6.758;2023-03-01T16:57:17;5.60;86.70
74901;DHT22;63461;51.416;6.758;2023-03-01T16:59:43;5.60;87.00
74901;DHT22;63461;51.416;6.758;2023-03-01T17:02:13;5.60;87.00
74901;DHT22;63461;51.416;6.758;2023-03-01T17:04:40;5.50;87.30
74901;DHT22;63461;51.416;6.758;2023-03-01T17:07:06;5.40;87.50
74901;DHT22;63461;51.416;6.758;2023-03-01T17:09:38;5.50;87.50
74901;DHT22;63461;51.416;6.758;2023-03-01T17:12:04;5.50;87.80
74901;DHT22;63461;51.416;6.758;2023-03-01T17:14:30;5.40;88.40
74901;DHT22;63461;51.416;6.758;2023-03-01T17:16:55;5.30;88.70
74901;DHT22;63461;51.416;6.758;2023-03-01T17:19:21;5.30;88.90
74901;DHT22;63461;51.416;6.758;2023-03-01T17:21:47;5.30;89.20
74901;DHT22;63461;51.416;6.758;2023-03-01T17:24:13;5.20;89.50
74901;DHT22;63461;51.416;6.758;2023-03-01T17:26:39;5.20;89.80
74901;DHT22;63461;51.416;6.758;2023-03-01T17:29:05;5.20;89.90
74901;DHT22;63461;51.416;6.758;2023-03-01T17:31:32;5.20;90.30
74901;DHT22;63461;51.416;6.758;2023-03-01T17:33:58;5.20;90.00